• Join FlightAware (Why Join?)
  • Login
  • US Flag 
10:25AM EDT


 

Airport Tracker/Info


-or-


 

Live Flight TrackerFlight Track Log ✈ FFT926 ✈ 16-Jun-2014 ✈ KTTN - KCLE

Flight Track Log - Related Links

Times and Time Zones

All times are in EDT time to prevent confusion due to time zone crossing. See the FFT926 flight status page for this flight to view local times or setup timezone preferences in your user account.

Time Position Orientation Groundspeed Altitude Reporting Facility
EDT Latitude Longitude Course Direction KTS MPH feet Rate Location/Type
07:13AM 40.2667 -74.8333 217° Southwest 137 158 800  Level Philadelphia TRACON
07:14AM 40.2333 -74.8667 217° Southwest 177 204 2,900 1,860 Climbing Philadelphia TRACON
07:15AM 40.2167 -74.9500 255° West 249 287 4,600 2,040 Climbing Philadelphia TRACON
07:16AM 40.2197 -75.0386 273° West 270 311 6,900 1,500 Climbing New York Center
07:17AM 40.2206 -75.1311 271° West 267 307 7,600 1,620 Climbing New York Center
07:18AM 40.2214 -75.2183 271° West 262 302 10,200 2,400 Climbing New York Center
07:19AM 40.2208 -75.3406 270° West 298 343 12,500 1,380 Climbing New York Center
07:20AM 40.2225 -75.4603 271° West 325 374 13,000 900 Climbing New York Center
07:21AM 40.2322 -75.5778 276° West 332 382 14,400 1,800 Climbing New York Center
07:22AM 40.2914 -75.6636 312° West 321 369 16,700 1,740 Climbing New York Center
07:23AM 40.3561 -75.7608 311° West 346 398 17,900 1,800 Climbing New York Center
07:24AM 40.4308 -75.8669 313° West 358 412 20,400 2,160 Climbing New York Center
07:25AM 40.4561 -75.9997 284° West 363 418 22,300 1,560 Climbing New York Center
07:26AM 40.4742 -76.1078 282° West 363 418 23,600 1,560 Climbing New York Center
07:27AM 40.5017 -76.2817 282° West 389 448 25,500 2,100 Climbing New York Center
07:28AM 40.5239 -76.4283 281° West 404 465 27,800 1,980 Climbing New York Center
07:29AM 40.5461 -76.5750 281° West 404 465 29,500 1,620 Climbing New York Center
07:30AM 40.5492 -76.7200 272° West 411 473 31,100 1,200 Climbing New York Center
07:31AM 40.5564 -76.8681 274° West 411 473 32,000 420 Climbing New York Center
07:32AM 40.5633 -77.0136 274° West 411 473 32,000  Level New York Center
07:33AM 40.5678 -77.1617 272° West 411 473 32,000  Level New York Center
07:34AM 40.5744 -77.3097 273° West 411 473 32,000  Level New York Center
07:37AM 40.6456 -77.6097 287° West 407 468 32,000  Level Cleveland Center
07:38AM 40.6772 -77.7494 287° West 406 467 32,000  Level Cleveland Center
07:39AM 40.7111 -77.8889 288° West 404 465 32,000  Level Cleveland Center
07:40AM 40.7439 -78.0278 287° West 403 464 32,000  Level Cleveland Center
07:41AM 40.7831 -78.1958 287° West 403 464 32,000  Level Cleveland Center
07:42AM 40.8286 -78.3303 294° West 401 461 32,000  Level Cleveland Center
07:43AM 40.8764 -78.4511 298° West 402 463 32,000  Level Cleveland Center
07:44AM 40.9158 -78.5858 291° West 400 460 32,000  Level Cleveland Center
07:45AM 40.9569 -78.7528 288° West 401 461 32,000 -60 Level Cleveland Center
07:46AM 40.9908 -78.8911 288° West 400 460 31,900 -300 Descending Cleveland Center
07:47AM 41.0244 -79.0286 288° West 397 457 31,400 -540 Descending Cleveland Center
07:48AM 41.0583 -79.1675 288° West 398 458 30,900 -540 Descending Cleveland Center
07:49AM 41.0911 -79.3069 287° West 399 459 30,400 -480 Descending Cleveland Center
07:50AM 41.1250 -79.4475 288° West 400 460 30,000 -360 Descending Cleveland Center
07:51AM 41.1644 -79.6144 287° West 400 460 29,700 -360 Descending Cleveland Center
07:52AM 41.1947 -79.7436 287° West 399 459 29,300 -900 Descending Cleveland Center
07:53AM 41.2267 -79.8842 287° West 400 460 27,900 -1,800 Descending Cleveland Center
07:54AM 41.2617 -80.0317 288° West 393 452 25,600 -1,920 Descending Cleveland Center
07:55AM 41.2925 -80.1636 287° West 382 440 24,000 -1,320 Descending Cleveland Center
07:56AM 41.3208 -80.2900 287° West 363 418 23,000 -1,500 Descending Cleveland Center
07:57AM 41.3519 -80.4258 287° West 358 412 21,000 -1,860 Descending Cleveland Center
07:58AM 41.3797 -80.5503 287° West 355 409 19,200 -1,800 Descending Cleveland Center
07:59AM 41.4108 -80.6881 287° West 334 384 17,300 -1,740 Descending Cleveland Center
08:00AM 41.4372 -80.8014 287° West 327 376 15,700 -1,620 Descending Cleveland Center
08:01AM 41.4608 -80.9122 286° West 311 358 14,000 -1,680 Descending Cleveland Center
08:02AM 41.4850 -81.0203 287° West 303 349 12,300 -1,800 Descending Cleveland Center
08:03AM 41.4942 -81.0686 284° West 297 342 11,500 -1,680 Descending Cleveland Center
08:03AM 41.4986 -81.1269 276° West 298 343 10,600 -1,380 Descending Cleveland Center
08:04AM 41.4992 -81.1839 271° West 286 329 10,000 -600 Descending Cleveland Center
08:04AM 41.4989 -81.2314 270° West 284 327 10,000 -720 Level Cleveland Center
08:05AM 41.4975 -81.2756 268° West 263 303 9,400 -1,380 Descending Cleveland Center
08:05AM 41.4972 -81.3278 270° West 266 306 8,600 -1,440 Descending Cleveland Center
08:06AM 41.4947 -81.3783 266° West 257 296 7,800 -1,800 Descending Cleveland Center
08:06AM 41.4942 -81.4381 269° West 260 299 6,800 -1,380 Descending Cleveland Center
08:07AM 41.4928 -81.4703 267° West 249 287 6,400 -1,380 Descending Cleveland Center
08:07AM 41.4928 -81.5286 270° West 249 287 5,400 -1,620 Descending Cleveland Center
08:08AM 41.4944 -81.5711 273° West 258 297 4,800 -1,260 Descending Cleveland Center
08:09AM 41.4914 -81.6222 265° West 249 287 4,100 -900 Descending Cleveland Center
08:10AM 41.4897 -81.7031 268° West 229 264 3,300 -780 Descending Cleveland Center
08:10AM 41.4861 -81.7317 260° West 192 221 3,100 -600 Descending Cleveland Center
08:11AM 41.4686 -81.7578 228° Southwest 186 214 2,700 -720 Descending Cleveland Center
08:11AM 41.4569 -81.7744 227° Southwest 138 159 2,400 -900 Descending Cleveland Center
08:12AM 41.4403 -81.8019 231° Southwest 148 170 1,800 -840 Descending Cleveland Center
08:12AM 41.4344 -81.8125 234° Southwest 119 137 1,500 -780 Descending Cleveland Center
08:13AM 41.4186 -81.8358 228° Southwest 129 148 1,000 -780 Descending Cleveland Center
08:15AM 41.4000 -81.8500 252° West  Level FlightAware Approximate